Terminal Aerodrome Forecast
Issued by NWS Atlanta, GA

Home | Current Version | Previous Version | Text Only | Print | Product List | Glossary On
Versions: 1 2 3 4 5 6 7 8 9 10 11 12 13 14 15 16 17 18 19 20 21
000
FTUS42 KFFC 231125
TAFMCN
TAF
KMCN 231125Z 2312/2412 00000KT P6SM FEW250
     FM231500 26005KT P6SM SCT040
     FM231700 25004KT P6SM SCT050
     FM231900 25004KT P6SM VCSH BKN070
     FM240200 00000KT P6SM SCT080 BKN250=

USA.gov is the U.S. government's official web portal to all federal, state and local government web resources and services.